createdAt,value
2023-05-10T00:00:40.875Z,100118.88
2023-05-10T00:03:07.397Z,100136.53
2023-05-10T00:05:33.857Z,100054.22
2023-05-10T00:08:00.345Z,100155.47
2023-05-10T00:10:26.675Z,100143.44
2023-05-10T00:12:53.197Z,100164.03
2023-05-10T00:15:19.693Z,100162.31
2023-05-10T00:17:46.063Z,100124.72
2023-05-10T00:20:12.734Z,100106.44
2023-05-10T00:22:39.208Z,100152.75
2023-05-10T00:25:07.031Z,100037.59
2023-05-10T00:27:33.520Z,100099.66
2023-05-10T00:29:59.858Z,100098.28
2023-05-10T00:32:26.266Z,100128.63
2023-05-10T00:34:52.924Z,100153.47
2023-05-10T00:37:19.257Z,100088.94
2023-05-10T00:39:45.683Z,100073.03
2023-05-10T00:42:12.024Z,100144.66
2023-05-10T00:44:38.415Z,100087.38
2023-05-10T00:47:04.884Z,100149.78
2023-05-10T00:49:32.176Z,100142.22
2023-05-10T00:51:59.018Z,100129.50
2023-05-10T00:54:25.583Z,100084.19
2023-05-10T00:56:52.612Z,100106.22
2023-05-10T00:59:19.809Z,100135.81
2023-05-10T01:01:46.789Z,100074.59
2023-05-10T01:04:14.427Z,100163.59
2023-05-10T01:06:41.948Z,100102.63
2023-05-10T01:09:08.559Z,100151.00
2023-05-10T01:11:39.438Z,100159.03
2023-05-10T01:14:07.010Z,100159.44
2023-05-10T01:16:38.021Z,100029.63
2023-05-10T01:19:09.351Z,100098.06
2023-05-10T01:22:20.079Z,100155.09
2023-05-10T01:25:20.916Z,100163.88
2023-05-10T01:28:14.834Z,100161.16
2023-05-10T01:30:56.401Z,100157.44
2023-05-10T01:33:36.588Z,100119.25
2023-05-10T01:36:11.879Z,100156.91
2023-05-10T01:38:44.694Z,100161.25
2023-05-10T01:41:19.347Z,100162.03
2023-05-10T01:44:00.802Z,100151.91
2023-05-10T01:46:37.990Z,100172.91
2023-05-10T01:49:10.536Z,100168.38
2023-05-10T01:51:48.447Z,100157.19
2023-05-10T01:54:18.327Z,100140.88
2023-05-10T01:56:46.508Z,100160.59
2023-05-10T01:59:16.334Z,100123.31
2023-05-10T02:01:44.107Z,100150.44
2023-05-10T02:04:12.123Z,100128.56
2023-05-10T02:06:40.327Z,100148.63
2023-05-10T02:09:08.544Z,100143.22
2023-05-10T02:11:35.549Z,100125.22
2023-05-10T02:14:02.695Z,100157.81
2023-05-10T02:16:31.815Z,100107.50
2023-05-10T02:19:00.533Z,100110.19
2023-05-10T02:21:28.138Z,100165.88
2023-05-10T02:23:56.292Z,100112.00
2023-05-10T02:26:24.655Z,100077.72
2023-05-10T02:28:52.774Z,100138.03
2023-05-10T02:31:20.628Z,100166.00
2023-05-10T02:33:49.058Z,100070.47
2023-05-10T02:36:17.329Z,100164.31
2023-05-10T02:38:45.473Z,100089.09
2023-05-10T02:41:13.011Z,100055.09
2023-05-10T02:43:41.771Z,100083.13
2023-05-10T02:46:08.342Z,100179.69
2023-05-10T02:48:34.822Z,100174.56
2023-05-10T02:51:06.716Z,100172.72
2023-05-10T02:53:36.470Z,100112.63
2023-05-10T02:56:11.997Z,100098.94
2023-05-10T02:58:38.400Z,100080.00
2023-05-10T03:01:05.006Z,100115.50
2023-05-10T03:03:31.460Z,100097.56
2023-05-10T03:05:58.901Z,100100.91
2023-05-10T03:08:25.851Z,100166.72
2023-05-10T03:11:18.784Z,100187.38
2023-05-10T03:13:57.535Z,100121.09
2023-05-10T03:16:30.346Z,100191.78
2023-05-10T03:19:11.345Z,100121.59
2023-05-10T03:21:42.706Z,100127.84
2023-05-10T03:24:12.930Z,100191.06
2023-05-10T03:26:39.986Z,100145.22
2023-05-10T03:29:09.019Z,100155.47
2023-05-10T03:31:35.697Z,100186.53
2023-05-10T03:34:02.248Z,100196.59
2023-05-10T03:36:28.718Z,100122.25
2023-05-10T03:38:55.537Z,100196.19
2023-05-10T03:41:22.292Z,100179.22
2023-05-10T03:43:48.700Z,100122.22
2023-05-10T03:46:15.201Z,100169.19
2023-05-10T03:48:41.590Z,100169.84
2023-05-10T03:51:07.981Z,100213.84
2023-05-10T03:53:34.379Z,100206.53
2023-05-10T03:56:00.910Z,100185.38
2023-05-10T03:58:27.299Z,100081.00
2023-05-10T04:00:53.837Z,100204.47
2023-05-10T04:03:21.214Z,100133.47
2023-05-10T04:05:47.853Z,100083.41
2023-05-10T04:08:15.747Z,100198.63
2023-05-10T04:10:42.156Z,100170.56
2023-05-10T04:13:08.530Z,100183.31
2023-05-10T04:15:34.968Z,100162.53
2023-05-10T04:18:01.371Z,100198.44
2023-05-10T04:20:27.817Z,100170.56
2023-05-10T04:22:54.564Z,100173.72
2023-05-10T04:25:20.995Z,100199.81
2023-05-10T04:27:47.378Z,100195.19
2023-05-10T04:30:13.966Z,100224.97
2023-05-10T04:32:40.435Z,100201.59
2023-05-10T04:35:07.091Z,100131.34
2023-05-10T04:37:33.507Z,100126.34
2023-05-10T04:40:00.928Z,100180.47
2023-05-10T04:42:27.344Z,100184.44
2023-05-10T04:44:53.918Z,100145.88
2023-05-10T04:47:20.298Z,100207.81
2023-05-10T04:49:49.808Z,100149.63
2023-05-10T04:52:18.323Z,100160.41
2023-05-10T04:54:45.026Z,100242.16
2023-05-10T04:57:11.509Z,100156.53
2023-05-10T04:59:38.562Z,100229.91
2023-05-10T05:02:06.013Z,100236.63
2023-05-10T05:04:35.626Z,100239.13
2023-05-10T05:07:02.068Z,100257.28
2023-05-10T05:09:28.421Z,100240.31
2023-05-10T05:11:54.806Z,100245.72
2023-05-10T05:14:22.032Z,100259.94
2023-05-10T05:16:48.416Z,100162.84
2023-05-10T05:19:14.826Z,100172.28
2023-05-10T05:21:41.290Z,100185.78
2023-05-10T05:24:08.097Z,100241.44
2023-05-10T05:26:34.587Z,100250.88
2023-05-10T05:29:01.018Z,100252.56
2023-05-10T05:31:27.374Z,100210.59
2023-05-10T05:33:53.745Z,100248.00
2023-05-10T05:36:20.079Z,100265.47
2023-05-10T05:38:46.521Z,100248.34
2023-05-10T05:41:13.036Z,100281.94
2023-05-10T05:43:39.372Z,100222.69
2023-05-10T05:46:06.124Z,100279.94
2023-05-10T05:48:32.554Z,100278.22
2023-05-10T05:50:58.968Z,100228.78
2023-05-10T05:53:25.855Z,100204.69
2023-05-10T05:55:54.187Z,100231.41
2023-05-10T05:58:21.271Z,100228.38
2023-05-10T06:00:47.728Z,100283.34
2023-05-10T06:03:14.225Z,100267.22
2023-05-10T06:05:40.799Z,100213.13
2023-05-10T06:08:07.301Z,100209.56
2023-05-10T06:10:33.641Z,100297.09
2023-05-10T06:13:00.130Z,100229.81
2023-05-10T06:15:27.035Z,100292.63
2023-05-10T06:17:53.437Z,100312.75
2023-05-10T06:20:19.875Z,100225.16
2023-05-10T06:22:46.320Z,100269.63
2023-05-10T06:25:12.724Z,100310.63
2023-05-10T06:27:39.057Z,100273.94
2023-05-10T06:30:12.997Z,100312.69
2023-05-10T06:32:40.104Z,100315.38
2023-05-10T06:35:07.248Z,100246.06
2023-05-10T06:37:33.693Z,100231.81
2023-05-10T06:40:00.206Z,100246.81
2023-05-10T06:42:26.736Z,100229.75
2023-05-10T06:44:53.114Z,100248.13
2023-05-10T06:47:19.546Z,100254.69
2023-05-10T06:49:45.981Z,100319.19
2023-05-10T06:52:12.361Z,100329.59
2023-05-10T06:54:41.052Z,100331.97
2023-05-10T06:57:16.095Z,100338.16
2023-05-10T06:59:50.144Z,100265.13
2023-05-10T07:02:16.558Z,100281.53
2023-05-10T07:04:43.139Z,100276.28
2023-05-10T07:07:09.697Z,100347.75
2023-05-10T07:09:36.294Z,100231.13
2023-05-10T07:12:02.856Z,100324.69
2023-05-10T07:14:29.377Z,100330.97
2023-05-10T07:16:56.060Z,100342.09
2023-05-10T07:19:22.748Z,100257.53
2023-05-10T07:21:49.140Z,100350.00
2023-05-10T07:24:15.476Z,100324.84
2023-05-10T07:26:41.821Z,100274.69
2023-05-10T07:29:08.153Z,100280.47
2023-05-10T07:31:34.528Z,100353.22
2023-05-10T07:34:00.921Z,100235.47
2023-05-10T07:36:27.328Z,100305.94
2023-05-10T07:38:53.665Z,100264.16
2023-05-10T07:41:20.063Z,100359.88
2023-05-10T07:43:46.381Z,100359.22
2023-05-10T07:46:12.726Z,100335.88
2023-05-10T07:48:41.710Z,100314.56
2023-05-10T07:51:10.254Z,100362.22
2023-05-10T07:53:36.608Z,100358.34
2023-05-10T07:56:30.212Z,100370.59
2023-05-10T07:58:57.424Z,100305.00
2023-05-10T08:01:24.226Z,100300.78
2023-05-10T08:03:51.991Z,100359.00
2023-05-10T08:06:19.571Z,100362.94
2023-05-10T08:08:53.136Z,100353.75
2023-05-10T08:11:21.282Z,100379.34
2023-05-10T08:13:49.126Z,100373.22
2023-05-10T08:16:15.576Z,100367.16
2023-05-10T08:18:42.365Z,100383.63
2023-05-10T08:21:08.856Z,100349.22
2023-05-10T08:23:35.242Z,100357.94
2023-05-10T08:26:01.682Z,100397.59
2023-05-10T08:28:28.139Z,100396.22
2023-05-10T08:30:54.642Z,100401.03
2023-05-10T08:33:21.448Z,100305.31
2023-05-10T08:35:47.786Z,100390.78
2023-05-10T08:38:14.213Z,100387.19
2023-05-10T08:40:42.875Z,100415.22
2023-05-10T08:43:11.481Z,100330.28
2023-05-10T08:45:43.526Z,100418.56
2023-05-10T08:48:11.352Z,100423.41
2023-05-10T08:50:39.420Z,100405.44
2023-05-10T08:53:10.611Z,100405.16
2023-05-10T08:55:39.379Z,100433.19
2023-05-10T08:58:09.631Z,100435.88
2023-05-10T09:00:38.281Z,100405.03
2023-05-10T09:03:05.986Z,100353.13
2023-05-10T09:05:32.895Z,100422.00
2023-05-10T09:08:01.454Z,100437.41
2023-05-10T09:10:29.122Z,100450.81
2023-05-10T09:12:59.221Z,100448.09
2023-05-10T09:15:26.606Z,100440.03
2023-05-10T09:17:53.297Z,100440.81
2023-05-10T09:20:19.880Z,100394.38
2023-05-10T09:22:46.425Z,100355.81
2023-05-10T09:25:15.327Z,100462.63
2023-05-10T09:27:46.264Z,100465.69
2023-05-10T09:30:25.932Z,100420.91
2023-05-10T09:32:52.493Z,100393.13
2023-05-10T09:35:22.260Z,100341.81
2023-05-10T09:37:55.082Z,100456.00
2023-05-10T09:40:23.498Z,100480.34
2023-05-10T09:43:01.999Z,100438.25
2023-05-10T09:45:30.613Z,100396.13
2023-05-10T09:47:58.332Z,100474.06
2023-05-10T09:50:25.070Z,100459.94
2023-05-10T09:52:53.336Z,100482.22
2023-05-10T09:55:25.744Z,100479.56
2023-05-10T09:58:02.825Z,100462.66
2023-05-10T10:00:35.070Z,100451.97
2023-05-10T10:03:01.690Z,100471.47
2023-05-10T10:05:37.964Z,100476.44
2023-05-10T10:08:05.764Z,100419.28
2023-05-10T10:10:33.484Z,100456.94
2023-05-10T10:13:03.764Z,100465.50
2023-05-10T10:15:30.424Z,100467.38
2023-05-10T10:17:56.892Z,100477.16
2023-05-10T10:20:23.802Z,100462.19
2023-05-10T10:22:50.434Z,100477.91
2023-05-10T10:25:18.418Z,100379.47
2023-05-10T10:27:51.045Z,100481.72
2023-05-10T10:30:38.229Z,100477.59
2023-05-10T10:33:27.227Z,100485.88
2023-05-10T10:35:56.354Z,100467.47
2023-05-10T10:38:23.634Z,100398.03
2023-05-10T10:41:03.244Z,100419.81
2023-05-10T10:43:30.285Z,100486.16
2023-05-10T10:46:18.105Z,100453.72
2023-05-10T10:49:09.321Z,100457.72
2023-05-10T10:52:36.987Z,100391.69
2023-05-10T10:55:19.195Z,100487.44
2023-05-10T10:57:52.916Z,100483.03
2023-05-10T11:00:19.603Z,100491.44
2023-05-10T11:02:49.750Z,100475.59
2023-05-10T11:05:28.549Z,100492.41
2023-05-10T11:07:56.201Z,100408.69
2023-05-10T11:10:23.859Z,100412.41
2023-05-10T11:12:54.605Z,100486.81
2023-05-10T11:15:21.480Z,100406.88
2023-05-10T11:17:52.869Z,100427.13
2023-05-10T11:20:23.840Z,100466.06
2023-05-10T11:22:54.382Z,100475.09
2023-05-10T11:25:21.415Z,100494.31
2023-05-10T11:27:49.214Z,100505.78
2023-05-10T11:30:16.145Z,100514.56
2023-05-10T11:32:43.233Z,100464.34
2023-05-10T11:35:11.409Z,100472.47
2023-05-10T11:37:42.174Z,100498.41
2023-05-10T11:40:10.898Z,100455.47
2023-05-10T11:42:40.509Z,100442.75
2023-05-10T11:45:07.513Z,100407.13
2023-05-10T11:47:33.973Z,100504.72
2023-05-10T11:50:00.992Z,100515.13
2023-05-10T11:52:27.326Z,100473.31
2023-05-10T11:54:54.774Z,100419.16
2023-05-10T11:57:22.154Z,100478.59
2023-05-10T11:59:48.544Z,100416.19
2023-05-10T12:02:15.133Z,100490.66
2023-05-10T12:04:42.601Z,100442.44
2023-05-10T12:07:09.045Z,100428.09
2023-05-10T12:09:43.940Z,100455.25
2023-05-10T12:12:11.081Z,100486.47
2023-05-10T12:14:37.505Z,100504.69
2023-05-10T12:17:03.926Z,100500.75
2023-05-10T12:19:38.613Z,100513.72
2023-05-10T12:22:08.089Z,100483.16
2023-05-10T12:24:36.256Z,100437.81
2023-05-10T12:27:08.231Z,100479.47
2023-05-10T12:29:34.624Z,100445.00
2023-05-10T12:32:01.218Z,100513.47
2023-05-10T12:34:31.770Z,100504.59
2023-05-10T12:36:59.656Z,100506.88
2023-05-10T12:39:26.242Z,100497.38
2023-05-10T12:41:53.546Z,100501.94
2023-05-10T12:44:24.943Z,100427.31
2023-05-10T12:46:51.436Z,100430.66
2023-05-10T12:49:19.847Z,100411.19
2023-05-10T12:51:46.234Z,100409.66
2023-05-10T12:54:12.824Z,100439.44
2023-05-10T12:56:39.158Z,100443.84
2023-05-10T12:59:07.881Z,100485.41
2023-05-10T13:01:34.365Z,100502.72
2023-05-10T13:04:01.192Z,100502.56
2023-05-10T13:06:27.536Z,100445.06
2023-05-10T13:08:53.940Z,100507.16
2023-05-10T13:11:21.026Z,100533.56
2023-05-10T13:13:47.394Z,100517.94
2023-05-10T13:16:14.072Z,100514.34
2023-05-10T13:18:42.962Z,100431.78
2023-05-10T13:21:09.361Z,100477.41
2023-05-10T13:23:35.899Z,100474.50
2023-05-10T13:26:02.237Z,100454.53
2023-05-10T13:28:28.896Z,100524.00
2023-05-10T13:30:55.251Z,100510.03
2023-05-10T13:33:21.637Z,100427.97
2023-05-10T13:35:48.130Z,100519.94
2023-05-10T13:38:14.761Z,100454.16
2023-05-10T13:40:46.984Z,100519.63
2023-05-10T13:43:13.758Z,100474.66
2023-05-10T13:45:40.179Z,100512.28
2023-05-10T13:48:06.772Z,100425.56
2023-05-10T13:50:33.209Z,100512.81
2023-05-10T13:52:59.563Z,100446.88
2023-05-10T13:55:26.096Z,100437.25
2023-05-10T13:57:52.801Z,100514.84
2023-05-10T14:00:19.471Z,100453.56
2023-05-10T14:02:45.934Z,100489.88
2023-05-10T14:05:12.880Z,100415.16
2023-05-10T14:07:39.584Z,100391.81
2023-05-10T14:10:06.410Z,100453.66
2023-05-10T14:12:33.057Z,100452.44
2023-05-10T14:14:59.472Z,100440.38
2023-05-10T14:17:25.930Z,100447.50
2023-05-10T14:19:53.774Z,100507.63
2023-05-10T14:22:20.451Z,100483.06
2023-05-10T14:24:47.897Z,100433.66
2023-05-10T14:27:14.365Z,100486.97
2023-05-10T14:29:40.773Z,100466.53
2023-05-10T14:32:07.491Z,100497.88
2023-05-10T14:34:34.144Z,100451.97
2023-05-10T14:37:00.543Z,100483.97
2023-05-10T14:39:30.358Z,100424.41
2023-05-10T14:41:57.200Z,100450.00
2023-05-10T14:44:24.608Z,100433.94
2023-05-10T14:46:51.388Z,100472.53
2023-05-10T14:49:17.711Z,100394.00
2023-05-10T14:51:44.037Z,100491.31
2023-05-10T14:54:10.335Z,100520.09
2023-05-10T14:56:39.901Z,100506.28
2023-05-10T14:59:15.588Z,100476.44
2023-05-10T15:01:45.145Z,100490.69
2023-05-10T15:04:13.843Z,100404.44
2023-05-10T15:06:40.767Z,100436.25
2023-05-10T15:09:07.114Z,100450.38
2023-05-10T15:11:33.657Z,100507.63
2023-05-10T15:14:01.236Z,100442.25
2023-05-10T15:16:27.666Z,100501.91
2023-05-10T15:18:54.117Z,100339.13
2023-05-10T15:21:20.544Z,100348.41
2023-05-10T15:23:47.235Z,100386.19
2023-05-10T15:26:13.705Z,100431.97
2023-05-10T15:28:40.153Z,100536.13
2023-05-10T15:31:06.748Z,100482.09
2023-05-10T15:33:33.413Z,100434.84
2023-05-10T15:35:59.806Z,100471.84
2023-05-10T15:38:28.858Z,100534.13
2023-05-10T15:40:58.681Z,100530.56
2023-05-10T15:43:25.111Z,100476.66
2023-05-10T15:45:51.497Z,100540.47
2023-05-10T15:48:18.004Z,100436.91
2023-05-10T15:50:46.692Z,100491.59
2023-05-10T15:53:17.200Z,100430.72
2023-05-10T15:55:44.013Z,100434.91
2023-05-10T15:58:11.345Z,100535.94
2023-05-10T16:00:50.169Z,100535.19
2023-05-10T16:03:16.693Z,100494.91
2023-05-10T16:05:43.252Z,100495.84
2023-05-10T16:08:09.679Z,100426.25
2023-05-10T16:10:39.297Z,100467.78
2023-05-10T16:13:05.907Z,100543.09
2023-05-10T16:15:34.641Z,100566.22
2023-05-10T16:18:01.191Z,100557.59
2023-05-10T16:20:27.647Z,100508.81
2023-05-10T16:22:54.038Z,100555.22
2023-05-10T16:25:20.437Z,100553.34
2023-05-10T16:27:47.121Z,100557.09
2023-05-10T16:30:16.921Z,100515.16
2023-05-10T16:32:43.505Z,100501.19
2023-05-10T16:35:10.041Z,100543.72
2023-05-10T16:37:39.211Z,100465.28
2023-05-10T16:40:06.484Z,100528.25
2023-05-10T16:42:32.968Z,100531.66
2023-05-10T16:45:08.613Z,100511.09
2023-05-10T16:47:43.109Z,100589.28
2023-05-10T16:50:10.165Z,100528.53
2023-05-10T16:52:36.949Z,100481.94
2023-05-10T16:55:04.435Z,100514.50
2023-05-10T16:57:33.947Z,100434.28
2023-05-10T17:00:00.533Z,100508.75
2023-05-10T17:02:27.268Z,100518.41
2023-05-10T17:04:55.149Z,100581.91
2023-05-10T17:07:23.598Z,100514.06
2023-05-10T17:09:51.976Z,100561.97
2023-05-10T17:12:18.496Z,100602.63
2023-05-10T17:14:44.916Z,100586.38
2023-05-10T17:17:11.419Z,100522.22
2023-05-10T17:19:38.050Z,100557.63
2023-05-10T17:22:04.531Z,100595.94
2023-05-10T17:24:31.104Z,100621.03
2023-05-10T17:26:57.506Z,100605.81
2023-05-10T17:29:24.181Z,100469.19
2023-05-10T17:31:50.862Z,100510.69
2023-05-10T17:34:17.543Z,100603.47
2023-05-10T17:36:44.013Z,100592.00
2023-05-10T17:39:10.685Z,100604.31
2023-05-10T17:41:37.209Z,100601.91
2023-05-10T17:44:04.814Z,100530.66
2023-05-10T17:46:31.170Z,100453.00
2023-05-10T17:48:57.954Z,100494.72
2023-05-10T17:51:24.492Z,100586.31
2023-05-10T17:53:50.887Z,100561.66
2023-05-10T17:56:17.315Z,100450.34
2023-05-10T17:58:45.302Z,100495.47
2023-05-10T18:01:12.073Z,100449.78
2023-05-10T18:03:38.580Z,100636.50
2023-05-10T18:06:05.321Z,100532.91
2023-05-10T18:08:33.020Z,100564.44
2023-05-10T18:10:59.397Z,100600.38
2023-05-10T18:13:26.344Z,100462.78
2023-05-10T18:15:53.266Z,100500.09
2023-05-10T18:18:19.732Z,100496.88
2023-05-10T18:20:46.605Z,100516.44
2023-05-10T18:23:14.259Z,100526.56
2023-05-10T18:25:40.760Z,100488.03
2023-05-10T18:28:08.166Z,100633.97
2023-05-10T18:30:34.583Z,100511.75
2023-05-10T18:33:01.124Z,100572.06
2023-05-10T18:35:27.894Z,100455.94
2023-05-10T18:37:54.390Z,100623.84
2023-05-10T18:40:20.952Z,100634.50
2023-05-10T18:42:50.001Z,100533.63
2023-05-10T18:45:16.844Z,100487.97
2023-05-10T18:47:43.427Z,100623.28
2023-05-10T18:50:10.714Z,100565.81
2023-05-10T18:52:37.334Z,100622.69
2023-05-10T18:55:04.333Z,100625.97
2023-05-10T18:57:30.948Z,100638.69
2023-05-10T18:59:57.512Z,100607.69
2023-05-10T19:02:26.462Z,100622.25
2023-05-10T19:04:53.112Z,100528.72
2023-05-10T19:07:19.744Z,100647.44
2023-05-10T19:09:46.082Z,100621.84
2023-05-10T19:12:12.498Z,100686.22
2023-05-10T19:14:38.919Z,100577.97
2023-05-10T19:17:05.917Z,100665.44
2023-05-10T19:19:32.864Z,100607.13
2023-05-10T19:21:59.384Z,100586.25
2023-05-10T19:24:26.050Z,100582.97
2023-05-10T19:26:52.829Z,100644.00
2023-05-10T19:29:19.510Z,100518.28
2023-05-10T19:31:47.098Z,100578.50
2023-05-10T19:34:13.765Z,100620.69
2023-05-10T19:36:40.511Z,100640.88
2023-05-10T19:39:06.952Z,100503.38
2023-05-10T19:41:36.049Z,100570.25
2023-05-10T19:44:06.411Z,100642.66
2023-05-10T19:46:33.018Z,100574.47
2023-05-10T19:48:59.607Z,100469.78
2023-05-10T19:51:26.402Z,100648.59
2023-05-10T19:53:52.827Z,100626.56
2023-05-10T19:56:19.500Z,100614.81
2023-05-10T19:58:46.668Z,100583.66
2023-05-10T20:01:13.197Z,100668.72
2023-05-10T20:03:39.669Z,100680.88
2023-05-10T20:06:06.212Z,100562.41
2023-05-10T20:08:32.656Z,100528.28
2023-05-10T20:11:00.567Z,100651.44
2023-05-10T20:13:26.915Z,100671.28
2023-05-10T20:16:00.026Z,100674.06
2023-05-10T20:18:26.983Z,100527.53
2023-05-10T20:20:55.011Z,100639.59
2023-05-10T20:23:21.957Z,100679.16
2023-05-10T20:25:48.738Z,100659.50
2023-05-10T20:28:15.836Z,100472.78
2023-05-10T20:30:42.248Z,100545.63
2023-05-10T20:33:09.221Z,100669.38
2023-05-10T20:35:35.810Z,100683.28
2023-05-10T20:38:02.409Z,100616.75
2023-05-10T20:40:28.794Z,100676.19
2023-05-10T20:42:55.206Z,100602.06
2023-05-10T20:45:21.563Z,100670.56
2023-05-10T20:47:48.107Z,100625.16
2023-05-10T20:50:14.695Z,100619.72
2023-05-10T20:52:41.177Z,100569.31
2023-05-10T20:55:07.879Z,100611.38
2023-05-10T20:57:34.305Z,100540.34
2023-05-10T21:00:00.748Z,100574.38
2023-05-10T21:02:27.157Z,100680.72
2023-05-10T21:04:55.559Z,100523.81
2023-05-10T21:07:23.494Z,100688.13
2023-05-10T21:09:49.907Z,100640.91
2023-05-10T21:12:16.348Z,100681.13
2023-05-10T21:14:44.175Z,100689.22
2023-05-10T21:17:10.605Z,100550.03
2023-05-10T21:19:37.008Z,100586.53
2023-05-10T21:22:03.750Z,100696.00
2023-05-10T21:24:30.775Z,100687.69
2023-05-10T21:26:57.134Z,100705.41
2023-05-10T21:29:23.453Z,100568.38
2023-05-10T21:31:49.895Z,100664.41
2023-05-10T21:34:17.889Z,100708.41
2023-05-10T21:36:45.438Z,100699.97
2023-05-10T21:39:11.920Z,100628.78
2023-05-10T21:41:38.315Z,100696.41
2023-05-10T21:44:05.036Z,100583.69
2023-05-10T21:46:31.795Z,100687.16
2023-05-10T21:48:58.132Z,100631.00
2023-05-10T21:51:24.482Z,100686.34
2023-05-10T21:53:50.911Z,100645.41
2023-05-10T21:56:17.368Z,100633.50
2023-05-10T21:58:43.771Z,100669.53
2023-05-10T22:01:10.223Z,100676.28
2023-05-10T22:03:36.701Z,100693.09
2023-05-10T22:06:03.325Z,100673.47
2023-05-10T22:08:29.788Z,100657.91
2023-05-10T22:10:56.395Z,100647.59
2023-05-10T22:13:22.764Z,100697.25
2023-05-10T22:15:49.273Z,100713.41
2023-05-10T22:18:15.685Z,100650.03
2023-05-10T22:20:47.355Z,100724.28
2023-05-10T22:23:13.999Z,100612.66
2023-05-10T22:25:40.417Z,100707.00
2023-05-10T22:28:09.089Z,100592.38
2023-05-10T22:30:35.555Z,100670.47
2023-05-10T22:33:01.954Z,100732.56
2023-05-10T22:35:28.378Z,100738.34
2023-05-10T22:37:54.949Z,100614.56
2023-05-10T22:40:21.479Z,100699.97
2023-05-10T22:42:47.844Z,100546.25
2023-05-10T22:45:14.228Z,100645.63
2023-05-10T22:47:40.693Z,100712.75
2023-05-10T22:50:08.604Z,100726.59
2023-05-10T22:52:35.068Z,100745.41
2023-05-10T22:55:01.606Z,100729.25
2023-05-10T22:57:28.108Z,100644.53
2023-05-10T22:59:54.494Z,100529.34
2023-05-10T23:02:21.214Z,100603.38
2023-05-10T23:04:47.616Z,100708.84
2023-05-10T23:07:13.993Z,100715.47
2023-05-10T23:09:40.458Z,100716.66
2023-05-10T23:12:06.779Z,100703.72
2023-05-10T23:14:33.121Z,100743.09
2023-05-10T23:16:59.438Z,100725.00
2023-05-10T23:19:25.979Z,100676.03
2023-05-10T23:21:52.336Z,100733.81
2023-05-10T23:24:18.747Z,100697.59
2023-05-10T23:26:46.325Z,100707.22
2023-05-10T23:29:12.703Z,100699.31
2023-05-10T23:31:45.038Z,100599.78
2023-05-10T23:34:12.218Z,100647.91
2023-05-10T23:36:38.920Z,100708.03
2023-05-10T23:39:05.487Z,100711.50
2023-05-10T23:41:31.886Z,100635.47
2023-05-10T23:43:58.247Z,100646.22
2023-05-10T23:46:24.645Z,100704.81
2023-05-10T23:48:50.997Z,100708.25
2023-05-10T23:51:17.325Z,100687.63
2023-05-10T23:53:43.652Z,100611.31
2023-05-10T23:56:10.063Z,100588.22
2023-05-10T23:58:36.397Z,100707.41
